sensor_id;sensor_type;location;lat;lon;timestamp;P1;durP1;ratioP1;P2;durP2;ratioP2
70975;SDS011;58635;51.198;6.010;2023-12-20T00:02:24;11.80;;;7.15;;
70975;SDS011;58635;51.198;6.010;2023-12-20T00:04:51;12.65;;;7.32;;
70975;SDS011;58635;51.198;6.010;2023-12-20T00:07:17;11.50;;;7.70;;
70975;SDS011;58635;51.198;6.010;2023-12-20T00:09:43;12.80;;;7.70;;
70975;SDS011;58635;51.198;6.010;2023-12-20T00:12:10;12.32;;;7.35;;
70975;SDS011;58635;51.198;6.010;2023-12-20T00:14:36;12.65;;;6.57;;
70975;SDS011;58635;51.198;6.010;2023-12-20T00:17:02;12.95;;;7.03;;
70975;SDS011;58635;51.198;6.010;2023-12-20T00:19:29;12.02;;;6.10;;
70975;SDS011;58635;51.198;6.010;2023-12-20T00:21:55;10.20;;;5.93;;
70975;SDS011;58635;51.198;6.010;2023-12-20T00:24:21;10.45;;;6.05;;
70975;SDS011;58635;51.198;6.010;2023-12-20T00:26:48;11.25;;;6.13;;
70975;SDS011;58635;51.198;6.010;2023-12-20T00:29:14;11.18;;;5.85;;
70975;SDS011;58635;51.198;6.010;2023-12-20T00:31:40;11.65;;;5.80;;
70975;SDS011;58635;51.198;6.010;2023-12-20T00:34:07;11.90;;;5.20;;
70975;SDS011;58635;51.198;6.010;2023-12-20T00:36:33;11.60;;;4.93;;
70975;SDS011;58635;51.198;6.010;2023-12-20T00:38:59;9.80;;;4.93;;
70975;SDS011;58635;51.198;6.010;2023-12-20T00:41:26;8.45;;;3.88;;
70975;SDS011;58635;51.198;6.010;2023-12-20T00:43:52;9.13;;;3.85;;
70975;SDS011;58635;51.198;6.010;2023-12-20T00:46:19;8.10;;;3.47;;
70975;SDS011;58635;51.198;6.010;2023-12-20T00:48:45;11.52;;;3.25;;
70975;SDS011;58635;51.198;6.010;2023-12-20T00:51:11;12.07;;;3.20;;
70975;SDS011;58635;51.198;6.010;2023-12-20T00:53:38;10.38;;;2.72;;
70975;SDS011;58635;51.198;6.010;2023-12-20T00:56:04;11.07;;;3.17;;
70975;SDS011;58635;51.198;6.010;2023-12-20T00:58:31;11.02;;;2.78;;
70975;SDS011;58635;51.198;6.010;2023-12-20T01:00:57;9.63;;;3.35;;
70975;SDS011;58635;51.198;6.010;2023-12-20T01:03:24;11.45;;;3.35;;
70975;SDS011;58635;51.198;6.010;2023-12-20T01:05:50;10.20;;;3.17;;
70975;SDS011;58635;51.198;6.010;2023-12-20T01:08:16;12.45;;;2.90;;
70975;SDS011;58635;51.198;6.010;2023-12-20T01:10:43;11.70;;;2.67;;
70975;SDS011;58635;51.198;6.010;2023-12-20T01:13:09;11.60;;;2.97;;
70975;SDS011;58635;51.198;6.010;2023-12-20T01:15:35;16.02;;;3.50;;
70975;SDS011;58635;51.198;6.010;2023-12-20T01:18:02;12.85;;;3.55;;
70975;SDS011;58635;51.198;6.010;2023-12-20T01:20:28;12.20;;;3.47;;
70975;SDS011;58635;51.198;6.010;2023-12-20T01:22:55;12.20;;;2.92;;
70975;SDS011;58635;51.198;6.010;2023-12-20T01:25:21;9.68;;;2.20;;
70975;SDS011;58635;51.198;6.010;2023-12-20T01:27:47;9.18;;;2.38;;
70975;SDS011;58635;51.198;6.010;2023-12-20T01:30:14;9.00;;;2.65;;
70975;SDS011;58635;51.198;6.010;2023-12-20T01:32:41;13.35;;;2.45;;
70975;SDS011;58635;51.198;6.010;2023-12-20T01:35:07;8.52;;;2.30;;
70975;SDS011;58635;51.198;6.010;2023-12-20T01:37:33;7.32;;;2.20;;
70975;SDS011;58635;51.198;6.010;2023-12-20T01:40:00;8.63;;;2.05;;
70975;SDS011;58635;51.198;6.010;2023-12-20T01:42:26;8.48;;;1.95;;
70975;SDS011;58635;51.198;6.010;2023-12-20T01:44:52;10.00;;;1.83;;
70975;SDS011;58635;51.198;6.010;2023-12-20T01:47:19;11.75;;;2.25;;
70975;SDS011;58635;51.198;6.010;2023-12-20T01:49:45;12.10;;;2.33;;
70975;SDS011;58635;51.198;6.010;2023-12-20T01:52:11;8.80;;;2.03;;
70975;SDS011;58635;51.198;6.010;2023-12-20T01:54:38;10.02;;;1.75;;
70975;SDS011;58635;51.198;6.010;2023-12-20T01:57:06;6.60;;;1.58;;
70975;SDS011;58635;51.198;6.010;2023-12-20T01:59:33;12.10;;;2.22;;
70975;SDS011;58635;51.198;6.010;2023-12-20T02:02:00;11.70;;;2.00;;
70975;SDS011;58635;51.198;6.010;2023-12-20T02:04:26;9.45;;;1.90;;
70975;SDS011;58635;51.198;6.010;2023-12-20T02:06:53;10.27;;;1.95;;
70975;SDS011;58635;51.198;6.010;2023-12-20T02:09:21;9.02;;;2.03;;
70975;SDS011;58635;51.198;6.010;2023-12-20T02:11:49;8.50;;;1.70;;
70975;SDS011;58635;51.198;6.010;2023-12-20T02:14:15;8.77;;;1.80;;
70975;SDS011;58635;51.198;6.010;2023-12-20T02:16:42;8.80;;;2.25;;
70975;SDS011;58635;51.198;6.010;2023-12-20T02:19:12;11.68;;;2.20;;
70975;SDS011;58635;51.198;6.010;2023-12-20T02:21:41;13.20;;;2.80;;
70975;SDS011;58635;51.198;6.010;2023-12-20T02:24:07;8.27;;;2.15;;
70975;SDS011;58635;51.198;6.010;2023-12-20T02:26:33;9.90;;;2.53;;
70975;SDS011;58635;51.198;6.010;2023-12-20T02:29:00;11.60;;;2.35;;
70975;SDS011;58635;51.198;6.010;2023-12-20T02:31:27;12.50;;;2.50;;
70975;SDS011;58635;51.198;6.010;2023-12-20T02:33:53;13.82;;;2.38;;
70975;SDS011;58635;51.198;6.010;2023-12-20T02:36:19;11.70;;;2.22;;
70975;SDS011;58635;51.198;6.010;2023-12-20T02:38:46;8.98;;;1.73;;
70975;SDS011;58635;51.198;6.010;2023-12-20T02:41:12;8.80;;;1.90;;
70975;SDS011;58635;51.198;6.010;2023-12-20T02:43:40;9.60;;;2.45;;
70975;SDS011;58635;51.198;6.010;2023-12-20T02:46:06;9.65;;;2.60;;
70975;SDS011;58635;51.198;6.010;2023-12-20T02:48:32;10.00;;;2.28;;
70975;SDS011;58635;51.198;6.010;2023-12-20T02:50:59;10.85;;;2.75;;
70975;SDS011;58635;51.198;6.010;2023-12-20T02:53:25;9.13;;;2.35;;
70975;SDS011;58635;51.198;6.010;2023-12-20T02:55:51;7.63;;;2.22;;
70975;SDS011;58635;51.198;6.010;2023-12-20T02:58:18;10.13;;;2.40;;
70975;SDS011;58635;51.198;6.010;2023-12-20T03:00:44;11.00;;;2.30;;
70975;SDS011;58635;51.198;6.010;2023-12-20T03:03:10;10.98;;;2.30;;
70975;SDS011;58635;51.198;6.010;2023-12-20T03:05:37;14.38;;;2.97;;
70975;SDS011;58635;51.198;6.010;2023-12-20T03:08:03;10.95;;;2.40;;
70975;SDS011;58635;51.198;6.010;2023-12-20T03:10:30;8.02;;;2.58;;
70975;SDS011;58635;51.198;6.010;2023-12-20T03:12:56;12.32;;;3.17;;
70975;SDS011;58635;51.198;6.010;2023-12-20T03:15:22;10.30;;;2.60;;
70975;SDS011;58635;51.198;6.010;2023-12-20T03:17:49;9.00;;;2.95;;
70975;SDS011;58635;51.198;6.010;2023-12-20T03:20:15;11.00;;;3.00;;
70975;SDS011;58635;51.198;6.010;2023-12-20T03:22:41;9.40;;;2.60;;
70975;SDS011;58635;51.198;6.010;2023-12-20T03:25:08;11.68;;;3.30;;
70975;SDS011;58635;51.198;6.010;2023-12-20T03:27:36;14.05;;;3.20;;
70975;SDS011;58635;51.198;6.010;2023-12-20T03:30:03;12.00;;;3.10;;
70975;SDS011;58635;51.198;6.010;2023-12-20T03:32:30;14.15;;;2.78;;
70975;SDS011;58635;51.198;6.010;2023-12-20T03:34:57;11.57;;;3.00;;
70975;SDS011;58635;51.198;6.010;2023-12-20T03:37:23;12.10;;;3.28;;
70975;SDS011;58635;51.198;6.010;2023-12-20T03:39:49;10.70;;;3.00;;
70975;SDS011;58635;51.198;6.010;2023-12-20T03:42:16;11.00;;;3.13;;
70975;SDS011;58635;51.198;6.010;2023-12-20T03:44:42;9.15;;;2.40;;
70975;SDS011;58635;51.198;6.010;2023-12-20T03:47:08;13.30;;;3.08;;
70975;SDS011;58635;51.198;6.010;2023-12-20T03:49:35;8.38;;;2.63;;
70975;SDS011;58635;51.198;6.010;2023-12-20T03:52:03;9.13;;;3.22;;
70975;SDS011;58635;51.198;6.010;2023-12-20T03:54:29;10.85;;;2.92;;
70975;SDS011;58635;51.198;6.010;2023-12-20T03:56:56;13.57;;;3.30;;
70975;SDS011;58635;51.198;6.010;2023-12-20T03:59:22;11.07;;;3.05;;
70975;SDS011;58635;51.198;6.010;2023-12-20T04:01:48;12.93;;;3.92;;
70975;SDS011;58635;51.198;6.010;2023-12-20T04:04:14;13.98;;;3.00;;
70975;SDS011;58635;51.198;6.010;2023-12-20T04:06:41;13.98;;;3.75;;
70975;SDS011;58635;51.198;6.010;2023-12-20T04:09:07;10.65;;;3.40;;
70975;SDS011;58635;51.198;6.010;2023-12-20T04:11:35;9.13;;;2.97;;
70975;SDS011;58635;51.198;6.010;2023-12-20T04:14:02;12.73;;;3.83;;
70975;SDS011;58635;51.198;6.010;2023-12-20T04:16:30;12.45;;;3.20;;
70975;SDS011;58635;51.198;6.010;2023-12-20T04:18:57;9.32;;;3.20;;
70975;SDS011;58635;51.198;6.010;2023-12-20T04:21:23;12.63;;;3.63;;
70975;SDS011;58635;51.198;6.010;2023-12-20T04:23:49;15.38;;;3.35;;
70975;SDS011;58635;51.198;6.010;2023-12-20T04:26:16;12.77;;;3.83;;
70975;SDS011;58635;51.198;6.010;2023-12-20T04:28:42;12.43;;;3.30;;
70975;SDS011;58635;51.198;6.010;2023-12-20T04:31:09;9.93;;;3.45;;
70975;SDS011;58635;51.198;6.010;2023-12-20T04:33:35;14.15;;;3.30;;
70975;SDS011;58635;51.198;6.010;2023-12-20T04:36:01;11.63;;;3.10;;
70975;SDS011;58635;51.198;6.010;2023-12-20T04:38:28;15.27;;;4.70;;
70975;SDS011;58635;51.198;6.010;2023-12-20T04:40:54;10.68;;;3.17;;
70975;SDS011;58635;51.198;6.010;2023-12-20T04:43:20;10.88;;;2.75;;
70975;SDS011;58635;51.198;6.010;2023-12-20T04:45:47;12.40;;;3.88;;
70975;SDS011;58635;51.198;6.010;2023-12-20T04:48:13;9.80;;;3.00;;
70975;SDS011;58635;51.198;6.010;2023-12-20T04:50:40;8.75;;;2.95;;
70975;SDS011;58635;51.198;6.010;2023-12-20T04:53:06;13.65;;;3.67;;
70975;SDS011;58635;51.198;6.010;2023-12-20T04:55:32;16.52;;;3.45;;
70975;SDS011;58635;51.198;6.010;2023-12-20T04:57:59;15.23;;;4.45;;
70975;SDS011;58635;51.198;6.010;2023-12-20T05:00:25;10.50;;;3.10;;
70975;SDS011;58635;51.198;6.010;2023-12-20T05:02:51;10.77;;;3.35;;
70975;SDS011;58635;51.198;6.010;2023-12-20T05:05:18;15.05;;;3.20;;
70975;SDS011;58635;51.198;6.010;2023-12-20T05:07:44;10.98;;;2.67;;
70975;SDS011;58635;51.198;6.010;2023-12-20T05:10:10;12.00;;;2.90;;
70975;SDS011;58635;51.198;6.010;2023-12-20T05:12:37;10.32;;;3.35;;
70975;SDS011;58635;51.198;6.010;2023-12-20T05:15:04;12.32;;;2.50;;
70975;SDS011;58635;51.198;6.010;2023-12-20T05:17:34;12.85;;;3.08;;
70975;SDS011;58635;51.198;6.010;2023-12-20T05:20:00;11.02;;;2.78;;
70975;SDS011;58635;51.198;6.010;2023-12-20T05:22:27;12.52;;;2.95;;
70975;SDS011;58635;51.198;6.010;2023-12-20T05:24:53;11.77;;;3.00;;
70975;SDS011;58635;51.198;6.010;2023-12-20T05:27:20;16.42;;;3.17;;
70975;SDS011;58635;51.198;6.010;2023-12-20T05:29:46;14.43;;;2.80;;
70975;SDS011;58635;51.198;6.010;2023-12-20T05:32:12;12.88;;;2.88;;
70975;SDS011;58635;51.198;6.010;2023-12-20T05:34:39;14.75;;;2.80;;
70975;SDS011;58635;51.198;6.010;2023-12-20T05:37:05;12.00;;;3.30;;
70975;SDS011;58635;51.198;6.010;2023-12-20T05:39:31;11.40;;;3.13;;
70975;SDS011;58635;51.198;6.010;2023-12-20T05:41:58;13.77;;;2.92;;
70975;SDS011;58635;51.198;6.010;2023-12-20T05:44:24;8.95;;;2.83;;
70975;SDS011;58635;51.198;6.010;2023-12-20T05:46:50;10.70;;;2.67;;
70975;SDS011;58635;51.198;6.010;2023-12-20T05:49:16;12.50;;;2.80;;
70975;SDS011;58635;51.198;6.010;2023-12-20T05:51:43;13.68;;;2.70;;
70975;SDS011;58635;51.198;6.010;2023-12-20T05:54:09;10.90;;;3.25;;
70975;SDS011;58635;51.198;6.010;2023-12-20T05:56:35;15.25;;;3.10;;
70975;SDS011;58635;51.198;6.010;2023-12-20T05:59:02;14.00;;;2.72;;
70975;SDS011;58635;51.198;6.010;2023-12-20T06:01:29;8.07;;;2.80;;
70975;SDS011;58635;51.198;6.010;2023-12-20T06:03:55;9.52;;;2.80;;
70975;SDS011;58635;51.198;6.010;2023-12-20T06:06:21;10.90;;;2.60;;
70975;SDS011;58635;51.198;6.010;2023-12-20T06:08:48;10.50;;;2.83;;
70975;SDS011;58635;51.198;6.010;2023-12-20T06:11:14;11.13;;;2.67;;
70975;SDS011;58635;51.198;6.010;2023-12-20T06:13:40;14.85;;;3.35;;
70975;SDS011;58635;51.198;6.010;2023-12-20T06:16:07;14.48;;;3.35;;
70975;SDS011;58635;51.198;6.010;2023-12-20T06:18:33;16.05;;;3.47;;
70975;SDS011;58635;51.198;6.010;2023-12-20T06:21:00;11.18;;;2.97;;
70975;SDS011;58635;51.198;6.010;2023-12-20T06:23:26;16.90;;;3.40;;
70975;SDS011;58635;51.198;6.010;2023-12-20T06:25:53;12.48;;;3.13;;
70975;SDS011;58635;51.198;6.010;2023-12-20T06:28:20;10.55;;;3.42;;
70975;SDS011;58635;51.198;6.010;2023-12-20T06:30:46;14.88;;;3.15;;
70975;SDS011;58635;51.198;6.010;2023-12-20T06:33:15;11.05;;;3.22;;
70975;SDS011;58635;51.198;6.010;2023-12-20T06:35:41;11.32;;;3.17;;
70975;SDS011;58635;51.198;6.010;2023-12-20T06:38:08;14.00;;;3.30;;
70975;SDS011;58635;51.198;6.010;2023-12-20T06:40:35;16.65;;;3.10;;
70975;SDS011;58635;51.198;6.010;2023-12-20T06:43:01;16.17;;;3.53;;
70975;SDS011;58635;51.198;6.010;2023-12-20T06:45:28;17.73;;;3.28;;
70975;SDS011;58635;51.198;6.010;2023-12-20T06:47:54;15.48;;;2.90;;
70975;SDS011;58635;51.198;6.010;2023-12-20T06:50:20;15.65;;;3.20;;
70975;SDS011;58635;51.198;6.010;2023-12-20T06:52:47;15.45;;;3.92;;
70975;SDS011;58635;51.198;6.010;2023-12-20T06:55:13;9.98;;;2.67;;
70975;SDS011;58635;51.198;6.010;2023-12-20T06:57:39;15.73;;;3.50;;
70975;SDS011;58635;51.198;6.010;2023-12-20T07:00:06;14.85;;;3.35;;
70975;SDS011;58635;51.198;6.010;2023-12-20T07:02:34;11.77;;;3.40;;
70975;SDS011;58635;51.198;6.010;2023-12-20T07:05:01;16.27;;;3.47;;
70975;SDS011;58635;51.198;6.010;2023-12-20T07:07:27;13.45;;;3.67;;
70975;SDS011;58635;51.198;6.010;2023-12-20T07:09:53;11.43;;;3.03;;
70975;SDS011;58635;51.198;6.010;2023-12-20T07:12:20;11.20;;;3.38;;
70975;SDS011;58635;51.198;6.010;2023-12-20T07:14:46;14.85;;;3.25;;
70975;SDS011;58635;51.198;6.010;2023-12-20T07:17:13;15.98;;;3.63;;
70975;SDS011;58635;51.198;6.010;2023-12-20T07:19:41;17.52;;;3.42;;
70975;SDS011;58635;51.198;6.010;2023-12-20T07:22:08;12.63;;;3.30;;
70975;SDS011;58635;51.198;6.010;2023-12-20T07:24:34;15.15;;;3.40;;
70975;SDS011;58635;51.198;6.010;2023-12-20T07:27:00;11.68;;;3.20;;
70975;SDS011;58635;51.198;6.010;2023-12-20T07:29:27;14.93;;;3.30;;
70975;SDS011;58635;51.198;6.010;2023-12-20T07:31:53;14.88;;;4.22;;
70975;SDS011;58635;51.198;6.010;2023-12-20T07:34:20;11.90;;;3.90;;
70975;SDS011;58635;51.198;6.010;2023-12-20T07:36:47;9.60;;;3.28;;
70975;SDS011;58635;51.198;6.010;2023-12-20T07:39:13;10.90;;;3.45;;
70975;SDS011;58635;51.198;6.010;2023-12-20T07:41:40;15.85;;;3.47;;
70975;SDS011;58635;51.198;6.010;2023-12-20T07:44:07;12.48;;;3.65;;
70975;SDS011;58635;51.198;6.010;2023-12-20T07:46:33;13.75;;;3.53;;
70975;SDS011;58635;51.198;6.010;2023-12-20T07:49:00;12.65;;;4.65;;
70975;SDS011;58635;51.198;6.010;2023-12-20T07:51:26;20.27;;;4.20;;
70975;SDS011;58635;51.198;6.010;2023-12-20T07:53:52;16.27;;;3.90;;
70975;SDS011;58635;51.198;6.010;2023-12-20T07:56:19;9.77;;;3.03;;
70975;SDS011;58635;51.198;6.010;2023-12-20T07:58:46;13.80;;;3.70;;
70975;SDS011;58635;51.198;6.010;2023-12-20T08:01:15;12.10;;;4.13;;
70975;SDS011;58635;51.198;6.010;2023-12-20T08:03:42;9.82;;;3.70;;
70975;SDS011;58635;51.198;6.010;2023-12-20T08:06:09;14.07;;;4.15;;
70975;SDS011;58635;51.198;6.010;2023-12-20T08:08:35;11.77;;;3.85;;
70975;SDS011;58635;51.198;6.010;2023-12-20T08:11:01;14.43;;;3.45;;
70975;SDS011;58635;51.198;6.010;2023-12-20T08:13:28;13.07;;;3.80;;
70975;SDS011;58635;51.198;6.010;2023-12-20T08:15:55;14.45;;;3.80;;
70975;SDS011;58635;51.198;6.010;2023-12-20T08:18:22;12.73;;;3.15;;
70975;SDS011;58635;51.198;6.010;2023-12-20T08:20:49;14.07;;;3.42;;
70975;SDS011;58635;51.198;6.010;2023-12-20T08:23:15;10.95;;;3.72;;
70975;SDS011;58635;51.198;6.010;2023-12-20T08:25:42;14.50;;;3.03;;
70975;SDS011;58635;51.198;6.010;2023-12-20T08:28:08;8.70;;;3.08;;
70975;SDS011;58635;51.198;6.010;2023-12-20T08:30:35;15.82;;;3.75;;
70975;SDS011;58635;51.198;6.010;2023-12-20T08:33:01;12.25;;;3.10;;
70975;SDS011;58635;51.198;6.010;2023-12-20T08:35:28;13.30;;;3.45;;
70975;SDS011;58635;51.198;6.010;2023-12-20T08:37:56;10.65;;;3.38;;
70975;SDS011;58635;51.198;6.010;2023-12-20T08:40:22;14.18;;;3.47;;
70975;SDS011;58635;51.198;6.010;2023-12-20T08:42:49;11.00;;;3.42;;
70975;SDS011;58635;51.198;6.010;2023-12-20T08:45:15;15.80;;;3.38;;
70975;SDS011;58635;51.198;6.010;2023-12-20T08:47:42;15.05;;;3.40;;
70975;SDS011;58635;51.198;6.010;2023-12-20T08:50:10;13.93;;;3.08;;
70975;SDS011;58635;51.198;6.010;2023-12-20T08:52:37;10.68;;;3.03;;
70975;SDS011;58635;51.198;6.010;2023-12-20T08:55:03;11.55;;;2.58;;
70975;SDS011;58635;51.198;6.010;2023-12-20T08:57:30;13.38;;;3.47;;
70975;SDS011;58635;51.198;6.010;2023-12-20T08:59:57;13.80;;;2.95;;
70975;SDS011;58635;51.198;6.010;2023-12-20T09:02:24;13.30;;;2.80;;
70975;SDS011;58635;51.198;6.010;2023-12-20T09:04:50;10.60;;;2.90;;
70975;SDS011;58635;51.198;6.010;2023-12-20T09:07:25;13.05;;;2.65;;
70975;SDS011;58635;51.198;6.010;2023-12-20T09:09:52;12.40;;;2.47;;
70975;SDS011;58635;51.198;6.010;2023-12-20T09:12:19;10.02;;;2.63;;
70975;SDS011;58635;51.198;6.010;2023-12-20T09:14:48;18.45;;;3.63;;
70975;SDS011;58635;51.198;6.010;2023-12-20T09:17:15;7.65;;;2.17;;
70975;SDS011;58635;51.198;6.010;2023-12-20T09:19:42;9.10;;;2.38;;
70975;SDS011;58635;51.198;6.010;2023-12-20T09:22:12;11.18;;;2.88;;
70975;SDS011;58635;51.198;6.010;2023-12-20T09:24:39;13.25;;;2.80;;
70975;SDS011;58635;51.198;6.010;2023-12-20T09:27:05;9.55;;;2.45;;
70975;SDS011;58635;51.198;6.010;2023-12-20T09:29:32;13.50;;;3.00;;
70975;SDS011;58635;51.198;6.010;2023-12-20T09:31:58;14.77;;;3.53;;
70975;SDS011;58635;51.198;6.010;2023-12-20T09:34:25;17.38;;;2.85;;
70975;SDS011;58635;51.198;6.010;2023-12-20T09:36:52;15.68;;;2.63;;
70975;SDS011;58635;51.198;6.010;2023-12-20T09:39:19;8.98;;;2.35;;
70975;SDS011;58635;51.198;6.010;2023-12-20T09:41:52;19.13;;;3.10;;
70975;SDS011;58635;51.198;6.010;2023-12-20T09:44:26;11.95;;;2.78;;
70975;SDS011;58635;51.198;6.010;2023-12-20T09:46:54;12.70;;;2.80;;
70975;SDS011;58635;51.198;6.010;2023-12-20T09:49:22;15.52;;;2.97;;
70975;SDS011;58635;51.198;6.010;2023-12-20T09:51:52;11.57;;;2.50;;
70975;SDS011;58635;51.198;6.010;2023-12-20T09:54:20;13.88;;;3.10;;
70975;SDS011;58635;51.198;6.010;2023-12-20T09:56:47;10.65;;;2.45;;
70975;SDS011;58635;51.198;6.010;2023-12-20T09:59:14;13.85;;;3.28;;
70975;SDS011;58635;51.198;6.010;2023-12-20T10:01:41;12.45;;;2.60;;
70975;SDS011;58635;51.198;6.010;2023-12-20T10:04:08;9.10;;;2.25;;
70975;SDS011;58635;51.198;6.010;2023-12-20T10:06:42;8.82;;;2.42;;
70975;SDS011;58635;51.198;6.010;2023-12-20T10:09:09;14.48;;;3.50;;
70975;SDS011;58635;51.198;6.010;2023-12-20T10:11:38;15.90;;;2.92;;
70975;SDS011;58635;51.198;6.010;2023-12-20T10:14:05;14.80;;;2.67;;
70975;SDS011;58635;51.198;6.010;2023-12-20T10:16:32;15.68;;;2.72;;
70975;SDS011;58635;51.198;6.010;2023-12-20T10:19:00;13.40;;;2.70;;
70975;SDS011;58635;51.198;6.010;2023-12-20T10:21:30;12.07;;;2.78;;
70975;SDS011;58635;51.198;6.010;2023-12-20T10:23:57;14.50;;;2.60;;
70975;SDS011;58635;51.198;6.010;2023-12-20T10:26:27;14.05;;;2.65;;
70975;SDS011;58635;51.198;6.010;2023-12-20T10:28:54;11.40;;;2.80;;
70975;SDS011;58635;51.198;6.010;2023-12-20T10:31:32;13.05;;;2.75;;
70975;SDS011;58635;51.198;6.010;2023-12-20T10:34:00;9.65;;;2.78;;
70975;SDS011;58635;51.198;6.010;2023-12-20T10:36:32;11.55;;;2.75;;
70975;SDS011;58635;51.198;6.010;2023-12-20T10:38:59;12.52;;;2.60;;
70975;SDS011;58635;51.198;6.010;2023-12-20T10:41:27;12.88;;;2.92;;
70975;SDS011;58635;51.198;6.010;2023-12-20T10:44:01;11.82;;;2.47;;
70975;SDS011;58635;51.198;6.010;2023-12-20T10:46:31;11.45;;;2.42;;
70975;SDS011;58635;51.198;6.010;2023-12-20T10:49:03;8.27;;;2.65;;
70975;SDS011;58635;51.198;6.010;2023-12-20T10:51:32;11.77;;;2.53;;
70975;SDS011;58635;51.198;6.010;2023-12-20T10:54:00;10.75;;;2.10;;
70975;SDS011;58635;51.198;6.010;2023-12-20T10:56:27;11.38;;;2.72;;
70975;SDS011;58635;51.198;6.010;2023-12-20T10:58:58;9.98;;;2.88;;
70975;SDS011;58635;51.198;6.010;2023-12-20T11:01:28;10.82;;;2.95;;
70975;SDS011;58635;51.198;6.010;2023-12-20T11:03:56;10.93;;;2.83;;
70975;SDS011;58635;51.198;6.010;2023-12-20T11:09:16;9.98;;;2.88;;
70975;SDS011;58635;51.198;6.010;2023-12-20T11:14:41;10.52;;;2.42;;
70975;SDS011;58635;51.198;6.010;2023-12-20T11:17:12;13.60;;;2.97;;
70975;SDS011;58635;51.198;6.010;2023-12-20T11:22:26;10.23;;;2.92;;
70975;SDS011;58635;51.198;6.010;2023-12-20T11:25:03;11.05;;;2.90;;
70975;SDS011;58635;51.198;6.010;2023-12-20T11:27:31;7.30;;;2.60;;
70975;SDS011;58635;51.198;6.010;2023-12-20T11:29:58;12.18;;;2.75;;
70975;SDS011;58635;51.198;6.010;2023-12-20T11:34:58;12.98;;;2.60;;
70975;SDS011;58635;51.198;6.010;2023-12-20T11:37:29;14.15;;;3.00;;
70975;SDS011;58635;51.198;6.010;2023-12-20T11:40:03;15.30;;;2.85;;
70975;SDS011;58635;51.198;6.010;2023-12-20T11:42:32;13.77;;;2.67;;
70975;SDS011;58635;51.198;6.010;2023-12-20T11:45:13;10.15;;;2.60;;
70975;SDS011;58635;51.198;6.010;2023-12-20T11:47:45;9.30;;;2.45;;
70975;SDS011;58635;51.198;6.010;2023-12-20T11:50:12;10.65;;;3.20;;
70975;SDS011;58635;51.198;6.010;2023-12-20T11:52:39;10.52;;;3.25;;
70975;SDS011;58635;51.198;6.010;2023-12-20T11:55:05;13.15;;;3.20;;
70975;SDS011;58635;51.198;6.010;2023-12-20T11:57:33;9.98;;;2.63;;
70975;SDS011;58635;51.198;6.010;2023-12-20T12:00:00;12.15;;;2.78;;
70975;SDS011;58635;51.198;6.010;2023-12-20T12:02:26;10.20;;;2.13;;
70975;SDS011;58635;51.198;6.010;2023-12-20T12:04:53;10.52;;;2.72;;
70975;SDS011;58635;51.198;6.010;2023-12-20T12:07:19;12.75;;;2.65;;
70975;SDS011;58635;51.198;6.010;2023-12-20T12:09:46;15.15;;;3.60;;
70975;SDS011;58635;51.198;6.010;2023-12-20T12:12:13;12.00;;;2.97;;
70975;SDS011;58635;51.198;6.010;2023-12-20T12:14:40;12.80;;;2.67;;
70975;SDS011;58635;51.198;6.010;2023-12-20T12:17:10;11.10;;;2.65;;
70975;SDS011;58635;51.198;6.010;2023-12-20T12:19:38;12.65;;;3.10;;
70975;SDS011;58635;51.198;6.010;2023-12-20T12:24:37;11.75;;;3.85;;
70975;SDS011;58635;51.198;6.010;2023-12-20T12:27:05;14.30;;;3.88;;
70975;SDS011;58635;51.198;6.010;2023-12-20T12:29:32;13.13;;;3.38;;
70975;SDS011;58635;51.198;6.010;2023-12-20T12:31:59;13.27;;;3.53;;
70975;SDS011;58635;51.198;6.010;2023-12-20T12:34:29;15.38;;;3.83;;
70975;SDS011;58635;51.198;6.010;2023-12-20T12:36:56;17.38;;;3.60;;
70975;SDS011;58635;51.198;6.010;2023-12-20T12:39:23;11.32;;;2.95;;
70975;SDS011;58635;51.198;6.010;2023-12-20T12:41:53;13.95;;;3.72;;
70975;SDS011;58635;51.198;6.010;2023-12-20T12:44:19;11.65;;;3.10;;
70975;SDS011;58635;51.198;6.010;2023-12-20T12:46:46;12.93;;;4.10;;
70975;SDS011;58635;51.198;6.010;2023-12-20T12:49:15;12.70;;;3.55;;
70975;SDS011;58635;51.198;6.010;2023-12-20T12:51:42;13.02;;;3.53;;
70975;SDS011;58635;51.198;6.010;2023-12-20T12:54:09;12.20;;;3.28;;
70975;SDS011;58635;51.198;6.010;2023-12-20T12:56:36;14.25;;;3.35;;
70975;SDS011;58635;51.198;6.010;2023-12-20T12:59:02;12.95;;;3.13;;
70975;SDS011;58635;51.198;6.010;2023-12-20T13:01:29;10.57;;;3.55;;
70975;SDS011;58635;51.198;6.010;2023-12-20T13:03:55;10.82;;;3.25;;
70975;SDS011;58635;51.198;6.010;2023-12-20T13:06:22;11.65;;;3.30;;
70975;SDS011;58635;51.198;6.010;2023-12-20T13:08:48;11.90;;;2.88;;
70975;SDS011;58635;51.198;6.010;2023-12-20T13:11:15;10.40;;;2.75;;
70975;SDS011;58635;51.198;6.010;2023-12-20T13:13:42;12.02;;;3.75;;
70975;SDS011;58635;51.198;6.010;2023-12-20T13:16:08;9.63;;;2.92;;
70975;SDS011;58635;51.198;6.010;2023-12-20T13:18:34;10.48;;;3.38;;
70975;SDS011;58635;51.198;6.010;2023-12-20T13:21:01;8.10;;;2.80;;
70975;SDS011;58635;51.198;6.010;2023-12-20T13:23:27;8.65;;;3.00;;
70975;SDS011;58635;51.198;6.010;2023-12-20T13:25:53;13.38;;;3.60;;
70975;SDS011;58635;51.198;6.010;2023-12-20T13:28:20;10.73;;;3.08;;
70975;SDS011;58635;51.198;6.010;2023-12-20T13:30:46;8.68;;;2.80;;
70975;SDS011;58635;51.198;6.010;2023-12-20T13:33:12;13.32;;;2.95;;
70975;SDS011;58635;51.198;6.010;2023-12-20T13:35:39;10.88;;;3.00;;
70975;SDS011;58635;51.198;6.010;2023-12-20T13:38:05;12.98;;;3.00;;
70975;SDS011;58635;51.198;6.010;2023-12-20T13:40:32;7.65;;;2.92;;
70975;SDS011;58635;51.198;6.010;2023-12-20T13:42:59;12.73;;;3.35;;
70975;SDS011;58635;51.198;6.010;2023-12-20T13:45:25;13.93;;;3.42;;
70975;SDS011;58635;51.198;6.010;2023-12-20T13:47:51;12.02;;;3.40;;
70975;SDS011;58635;51.198;6.010;2023-12-20T13:50:18;10.20;;;3.10;;
70975;SDS011;58635;51.198;6.010;2023-12-20T13:52:44;10.43;;;3.33;;
70975;SDS011;58635;51.198;6.010;2023-12-20T13:55:12;9.93;;;2.95;;
70975;SDS011;58635;51.198;6.010;2023-12-20T13:57:38;9.30;;;3.10;;
70975;SDS011;58635;51.198;6.010;2023-12-20T14:00:06;12.85;;;3.53;;
70975;SDS011;58635;51.198;6.010;2023-12-20T14:02:38;11.40;;;3.40;;
70975;SDS011;58635;51.198;6.010;2023-12-20T14:05:04;11.95;;;3.47;;
70975;SDS011;58635;51.198;6.010;2023-12-20T14:07:32;10.82;;;2.97;;
70975;SDS011;58635;51.198;6.010;2023-12-20T14:09:58;13.55;;;3.42;;
70975;SDS011;58635;51.198;6.010;2023-12-20T14:12:25;14.32;;;3.90;;
70975;SDS011;58635;51.198;6.010;2023-12-20T14:14:51;11.10;;;3.40;;
70975;SDS011;58635;51.198;6.010;2023-12-20T14:17:18;13.70;;;3.40;;
70975;SDS011;58635;51.198;6.010;2023-12-20T14:19:44;7.75;;;3.15;;
70975;SDS011;58635;51.198;6.010;2023-12-20T14:22:10;12.43;;;3.35;;
70975;SDS011;58635;51.198;6.010;2023-12-20T14:24:36;13.32;;;3.40;;
70975;SDS011;58635;51.198;6.010;2023-12-20T14:27:03;12.18;;;3.65;;
70975;SDS011;58635;51.198;6.010;2023-12-20T14:29:29;11.20;;;2.90;;
70975;SDS011;58635;51.198;6.010;2023-12-20T14:31:56;15.32;;;4.25;;
70975;SDS011;58635;51.198;6.010;2023-12-20T14:34:22;10.77;;;3.25;;
70975;SDS011;58635;51.198;6.010;2023-12-20T14:36:50;9.10;;;2.97;;
70975;SDS011;58635;51.198;6.010;2023-12-20T14:39:16;10.32;;;3.15;;
70975;SDS011;58635;51.198;6.010;2023-12-20T14:41:43;9.75;;;3.40;;
70975;SDS011;58635;51.198;6.010;2023-12-20T14:44:10;13.27;;;3.88;;
70975;SDS011;58635;51.198;6.010;2023-12-20T14:46:37;8.95;;;3.25;;
70975;SDS011;58635;51.198;6.010;2023-12-20T14:49:05;13.70;;;3.67;;
70975;SDS011;58635;51.198;6.010;2023-12-20T14:51:31;11.15;;;3.30;;